sensor_id;sensor_type;location;lat;lon;timestamp;P1;durP1;ratioP1;P2;durP2;ratioP2
8159;SDS011;27404;52.398;9.646;2023-07-20T00:00:48;0.70;;;0.60;;
8159;SDS011;27404;52.398;9.646;2023-07-20T00:03:19;2.20;;;0.90;;
8159;SDS011;27404;52.398;9.646;2023-07-20T00:05:48;1.97;;;0.93;;
8159;SDS011;27404;52.398;9.646;2023-07-20T00:08:14;1.50;;;0.80;;
8159;SDS011;27404;52.398;9.646;2023-07-20T00:10:41;1.50;;;0.97;;
8159;SDS011;27404;52.398;9.646;2023-07-20T00:13:07;1.40;;;0.93;;
8159;SDS011;27404;52.398;9.646;2023-07-20T00:15:32;3.03;;;1.20;;
8159;SDS011;27404;52.398;9.646;2023-07-20T00:17:58;1.20;;;0.90;;
8159;SDS011;27404;52.398;9.646;2023-07-20T00:20:23;1.57;;;1.23;;
8159;SDS011;27404;52.398;9.646;2023-07-20T00:22:50;2.77;;;1.00;;
8159;SDS011;27404;52.398;9.646;2023-07-20T00:25:16;1.70;;;1.13;;
8159;SDS011;27404;52.398;9.646;2023-07-20T00:27:42;2.53;;;1.20;;
8159;SDS011;27404;52.398;9.646;2023-07-20T00:30:08;1.93;;;1.37;;
8159;SDS011;27404;52.398;9.646;2023-07-20T00:32:33;1.57;;;1.10;;
8159;SDS011;27404;52.398;9.646;2023-07-20T00:34:59;2.90;;;1.07;;
8159;SDS011;27404;52.398;9.646;2023-07-20T00:37:24;4.57;;;1.37;;
8159;SDS011;27404;52.398;9.646;2023-07-20T00:39:50;2.67;;;1.20;;
8159;SDS011;27404;52.398;9.646;2023-07-20T00:42:16;2.20;;;1.33;;
8159;SDS011;27404;52.398;9.646;2023-07-20T00:44:41;1.50;;;1.07;;
8159;SDS011;27404;52.398;9.646;2023-07-20T00:47:07;3.90;;;1.50;;
8159;SDS011;27404;52.398;9.646;2023-07-20T00:49:32;2.13;;;1.30;;
8159;SDS011;27404;52.398;9.646;2023-07-20T00:51:59;4.43;;;1.23;;
8159;SDS011;27404;52.398;9.646;2023-07-20T00:54:26;1.37;;;1.20;;
8159;SDS011;27404;52.398;9.646;2023-07-20T00:56:53;1.30;;;1.03;;
8159;SDS011;27404;52.398;9.646;2023-07-20T00:59:19;1.77;;;1.00;;
8159;SDS011;27404;52.398;9.646;2023-07-20T01:01:46;2.33;;;1.20;;
8159;SDS011;27404;52.398;9.646;2023-07-20T01:04:11;3.23;;;1.30;;
8159;SDS011;27404;52.398;9.646;2023-07-20T01:06:45;3.43;;;1.40;;
8159;SDS011;27404;52.398;9.646;2023-07-20T01:09:27;2.70;;;1.20;;
8159;SDS011;27404;52.398;9.646;2023-07-20T01:14:32;2.27;;;1.00;;
8159;SDS011;27404;52.398;9.646;2023-07-20T01:16:59;1.90;;;1.30;;
8159;SDS011;27404;52.398;9.646;2023-07-20T01:19:25;2.80;;;1.17;;
8159;SDS011;27404;52.398;9.646;2023-07-20T01:21:51;1.37;;;1.00;;
8159;SDS011;27404;52.398;9.646;2023-07-20T01:24:27;2.30;;;1.40;;
8159;SDS011;27404;52.398;9.646;2023-07-20T01:32:57;2.67;;;1.20;;
8159;SDS011;27404;52.398;9.646;2023-07-20T01:35:27;1.90;;;1.30;;
8159;SDS011;27404;52.398;9.646;2023-07-20T01:37:54;3.53;;;1.20;;
8159;SDS011;27404;52.398;9.646;2023-07-20T01:40:20;1.83;;;1.10;;
8159;SDS011;27404;52.398;9.646;2023-07-20T01:42:48;2.07;;;1.40;;
8159;SDS011;27404;52.398;9.646;2023-07-20T01:45:14;1.90;;;1.30;;
8159;SDS011;27404;52.398;9.646;2023-07-20T01:47:39;1.80;;;1.30;;
8159;SDS011;27404;52.398;9.646;2023-07-20T01:50:06;3.23;;;1.60;;
8159;SDS011;27404;52.398;9.646;2023-07-20T01:52:32;3.30;;;1.23;;
8159;SDS011;27404;52.398;9.646;2023-07-20T01:54:58;1.50;;;1.30;;
8159;SDS011;27404;52.398;9.646;2023-07-20T01:57:23;3.07;;;1.37;;
8159;SDS011;27404;52.398;9.646;2023-07-20T01:59:49;1.40;;;1.20;;
8159;SDS011;27404;52.398;9.646;2023-07-20T02:02:14;1.77;;;1.37;;
8159;SDS011;27404;52.398;9.646;2023-07-20T02:04:39;1.87;;;1.30;;
8159;SDS011;27404;52.398;9.646;2023-07-20T02:07:05;1.97;;;1.30;;
8159;SDS011;27404;52.398;9.646;2023-07-20T02:09:30;2.83;;;1.20;;
8159;SDS011;27404;52.398;9.646;2023-07-20T02:11:56;2.30;;;1.40;;
8159;SDS011;27404;52.398;9.646;2023-07-20T02:14:21;1.77;;;1.30;;
8159;SDS011;27404;52.398;9.646;2023-07-20T02:16:47;1.63;;;1.20;;
8159;SDS011;27404;52.398;9.646;2023-07-20T02:19:17;1.47;;;1.10;;
8159;SDS011;27404;52.398;9.646;2023-07-20T02:21:42;3.00;;;1.47;;
8159;SDS011;27404;52.398;9.646;2023-07-20T02:24:08;1.53;;;1.20;;
8159;SDS011;27404;52.398;9.646;2023-07-20T02:26:33;2.80;;;1.17;;
8159;SDS011;27404;52.398;9.646;2023-07-20T02:28:59;1.87;;;1.30;;
8159;SDS011;27404;52.398;9.646;2023-07-20T02:31:24;1.63;;;1.20;;
8159;SDS011;27404;52.398;9.646;2023-07-20T02:33:50;2.03;;;1.40;;
8159;SDS011;27404;52.398;9.646;2023-07-20T02:36:15;2.17;;;1.57;;
8159;SDS011;27404;52.398;9.646;2023-07-20T02:38:42;3.20;;;1.40;;
8159;SDS011;27404;52.398;9.646;2023-07-20T02:41:07;2.20;;;1.40;;
8159;SDS011;27404;52.398;9.646;2023-07-20T02:43:33;1.93;;;1.20;;
8159;SDS011;27404;52.398;9.646;2023-07-20T02:45:58;2.07;;;1.20;;
8159;SDS011;27404;52.398;9.646;2023-07-20T02:48:23;3.10;;;1.43;;
8159;SDS011;27404;52.398;9.646;2023-07-20T02:50:49;1.70;;;1.17;;
8159;SDS011;27404;52.398;9.646;2023-07-20T02:53:14;2.13;;;1.30;;
8159;SDS011;27404;52.398;9.646;2023-07-20T02:55:40;3.03;;;1.23;;
8159;SDS011;27404;52.398;9.646;2023-07-20T02:58:05;1.90;;;1.60;;
8159;SDS011;27404;52.398;9.646;2023-07-20T03:00:31;3.10;;;1.57;;
8159;SDS011;27404;52.398;9.646;2023-07-20T03:02:56;2.17;;;1.77;;
8159;SDS011;27404;52.398;9.646;2023-07-20T03:05:22;2.73;;;1.67;;
8159;SDS011;27404;52.398;9.646;2023-07-20T03:07:50;5.53;;;1.70;;
8159;SDS011;27404;52.398;9.646;2023-07-20T03:10:16;2.10;;;1.23;;
8159;SDS011;27404;52.398;9.646;2023-07-20T03:12:42;3.20;;;1.50;;
8159;SDS011;27404;52.398;9.646;2023-07-20T03:15:07;2.53;;;1.73;;
8159;SDS011;27404;52.398;9.646;2023-07-20T03:17:33;2.60;;;1.40;;
8159;SDS011;27404;52.398;9.646;2023-07-20T03:19:59;2.80;;;1.40;;
8159;SDS011;27404;52.398;9.646;2023-07-20T03:22:25;2.37;;;1.60;;
8159;SDS011;27404;52.398;9.646;2023-07-20T03:24:51;1.80;;;1.30;;
8159;SDS011;27404;52.398;9.646;2023-07-20T03:27:17;1.90;;;1.30;;
8159;SDS011;27404;52.398;9.646;2023-07-20T03:29:43;2.27;;;1.50;;
8159;SDS011;27404;52.398;9.646;2023-07-20T03:32:09;2.37;;;1.40;;
8159;SDS011;27404;52.398;9.646;2023-07-20T03:34:36;1.60;;;1.47;;
8159;SDS011;27404;52.398;9.646;2023-07-20T03:37:01;1.77;;;1.10;;
8159;SDS011;27404;52.398;9.646;2023-07-20T03:39:30;2.43;;;1.50;;
8159;SDS011;27404;52.398;9.646;2023-07-20T03:41:55;1.83;;;1.37;;
8159;SDS011;27404;52.398;9.646;2023-07-20T03:44:22;2.47;;;1.40;;
8159;SDS011;27404;52.398;9.646;2023-07-20T03:46:47;1.37;;;1.13;;
8159;SDS011;27404;52.398;9.646;2023-07-20T03:49:13;1.77;;;1.33;;
8159;SDS011;27404;52.398;9.646;2023-07-20T03:51:38;2.60;;;1.43;;
8159;SDS011;27404;52.398;9.646;2023-07-20T03:54:04;1.70;;;1.23;;
8159;SDS011;27404;52.398;9.646;2023-07-20T03:56:29;2.70;;;1.40;;
8159;SDS011;27404;52.398;9.646;2023-07-20T03:58:59;2.83;;;1.40;;
8159;SDS011;27404;52.398;9.646;2023-07-20T04:01:24;1.80;;;1.37;;
8159;SDS011;27404;52.398;9.646;2023-07-20T04:03:50;2.40;;;1.50;;
8159;SDS011;27404;52.398;9.646;2023-07-20T04:06:15;2.53;;;1.43;;
8159;SDS011;27404;52.398;9.646;2023-07-20T04:08:42;2.07;;;1.43;;
8159;SDS011;27404;52.398;9.646;2023-07-20T04:11:08;1.90;;;1.60;;
8159;SDS011;27404;52.398;9.646;2023-07-20T04:13:33;2.33;;;1.70;;
8159;SDS011;27404;52.398;9.646;2023-07-20T04:15:59;1.43;;;1.30;;
8159;SDS011;27404;52.398;9.646;2023-07-20T04:18:25;1.70;;;1.50;;
8159;SDS011;27404;52.398;9.646;2023-07-20T04:20:50;3.50;;;1.43;;
8159;SDS011;27404;52.398;9.646;2023-07-20T04:23:16;3.23;;;1.60;;
8159;SDS011;27404;52.398;9.646;2023-07-20T04:25:42;3.77;;;1.30;;
8159;SDS011;27404;52.398;9.646;2023-07-20T04:28:07;2.20;;;1.57;;
8159;SDS011;27404;52.398;9.646;2023-07-20T04:30:36;2.17;;;1.40;;
8159;SDS011;27404;52.398;9.646;2023-07-20T04:33:03;1.93;;;1.50;;
8159;SDS011;27404;52.398;9.646;2023-07-20T04:35:44;3.50;;;1.80;;
8159;SDS011;27404;52.398;9.646;2023-07-20T04:38:10;1.93;;;1.50;;
8159;SDS011;27404;52.398;9.646;2023-07-20T04:40:35;3.17;;;1.33;;
8159;SDS011;27404;52.398;9.646;2023-07-20T04:43:01;3.47;;;1.63;;
8159;SDS011;27404;52.398;9.646;2023-07-20T04:45:26;2.43;;;1.87;;
8159;SDS011;27404;52.398;9.646;2023-07-20T04:47:52;2.87;;;1.83;;
8159;SDS011;27404;52.398;9.646;2023-07-20T04:50:17;3.70;;;2.20;;
8159;SDS011;27404;52.398;9.646;2023-07-20T04:52:43;2.17;;;1.87;;
8159;SDS011;27404;52.398;9.646;2023-07-20T04:55:08;4.17;;;2.47;;
8159;SDS011;27404;52.398;9.646;2023-07-20T04:57:34;6.50;;;2.60;;
8159;SDS011;27404;52.398;9.646;2023-07-20T04:59:59;3.93;;;2.93;;
8159;SDS011;27404;52.398;9.646;2023-07-20T05:02:25;4.00;;;2.70;;
8159;SDS011;27404;52.398;9.646;2023-07-20T05:04:50;3.63;;;2.40;;
8159;SDS011;27404;52.398;9.646;2023-07-20T05:07:16;4.20;;;2.80;;
8159;SDS011;27404;52.398;9.646;2023-07-20T05:09:41;2.87;;;2.57;;
8159;SDS011;27404;52.398;9.646;2023-07-20T05:12:07;3.87;;;2.50;;
8159;SDS011;27404;52.398;9.646;2023-07-20T05:14:32;2.97;;;2.50;;
8159;SDS011;27404;52.398;9.646;2023-07-20T05:16:58;2.43;;;2.10;;
8159;SDS011;27404;52.398;9.646;2023-07-20T05:19:24;2.63;;;2.10;;
8159;SDS011;27404;52.398;9.646;2023-07-20T05:21:50;2.90;;;2.57;;
8159;SDS011;27404;52.398;9.646;2023-07-20T05:24:15;3.20;;;2.40;;
8159;SDS011;27404;52.398;9.646;2023-07-20T05:26:41;3.37;;;2.60;;
8159;SDS011;27404;52.398;9.646;2023-07-20T05:29:06;2.07;;;1.83;;
8159;SDS011;27404;52.398;9.646;2023-07-20T05:31:31;5.60;;;2.70;;
8159;SDS011;27404;52.398;9.646;2023-07-20T05:33:58;3.13;;;2.53;;
8159;SDS011;27404;52.398;9.646;2023-07-20T05:36:23;3.40;;;2.37;;
8159;SDS011;27404;52.398;9.646;2023-07-20T05:38:49;4.17;;;2.67;;
8159;SDS011;27404;52.398;9.646;2023-07-20T05:41:15;4.33;;;2.73;;
8159;SDS011;27404;52.398;9.646;2023-07-20T05:43:40;3.30;;;2.60;;
8159;SDS011;27404;52.398;9.646;2023-07-20T05:46:07;3.03;;;2.60;;
8159;SDS011;27404;52.398;9.646;2023-07-20T05:48:32;2.73;;;2.00;;
8159;SDS011;27404;52.398;9.646;2023-07-20T05:50:58;3.80;;;2.53;;
8159;SDS011;27404;52.398;9.646;2023-07-20T05:53:23;2.60;;;2.40;;
8159;SDS011;27404;52.398;9.646;2023-07-20T05:55:53;3.50;;;2.30;;
8159;SDS011;27404;52.398;9.646;2023-07-20T05:58:19;3.43;;;2.30;;
8159;SDS011;27404;52.398;9.646;2023-07-20T06:00:47;2.87;;;2.30;;
8159;SDS011;27404;52.398;9.646;2023-07-20T06:03:13;2.40;;;2.20;;
8159;SDS011;27404;52.398;9.646;2023-07-20T06:05:39;3.80;;;2.60;;
8159;SDS011;27404;52.398;9.646;2023-07-20T06:08:04;2.60;;;2.20;;
8159;SDS011;27404;52.398;9.646;2023-07-20T06:10:30;2.50;;;2.00;;
8159;SDS011;27404;52.398;9.646;2023-07-20T06:12:55;2.93;;;2.07;;
8159;SDS011;27404;52.398;9.646;2023-07-20T06:15:39;2.97;;;2.30;;
8159;SDS011;27404;52.398;9.646;2023-07-20T06:18:06;3.97;;;2.33;;
8159;SDS011;27404;52.398;9.646;2023-07-20T06:20:31;3.03;;;2.13;;
8159;SDS011;27404;52.398;9.646;2023-07-20T06:22:57;3.03;;;2.53;;
8159;SDS011;27404;52.398;9.646;2023-07-20T06:25:22;3.50;;;2.40;;
8159;SDS011;27404;52.398;9.646;2023-07-20T06:27:49;3.47;;;2.53;;
8159;SDS011;27404;52.398;9.646;2023-07-20T06:30:18;4.70;;;2.70;;
8159;SDS011;27404;52.398;9.646;2023-07-20T06:32:44;3.10;;;2.70;;
8159;SDS011;27404;52.398;9.646;2023-07-20T06:35:10;4.07;;;2.77;;
8159;SDS011;27404;52.398;9.646;2023-07-20T06:37:36;2.83;;;2.50;;
8159;SDS011;27404;52.398;9.646;2023-07-20T06:40:02;2.87;;;2.40;;
8159;SDS011;27404;52.398;9.646;2023-07-20T06:42:31;2.60;;;2.40;;
8159;SDS011;27404;52.398;9.646;2023-07-20T06:44:57;4.47;;;2.10;;
8159;SDS011;27404;52.398;9.646;2023-07-20T06:47:23;2.60;;;1.93;;
8159;SDS011;27404;52.398;9.646;2023-07-20T06:49:48;4.20;;;2.10;;
8159;SDS011;27404;52.398;9.646;2023-07-20T06:52:14;2.47;;;1.90;;
8159;SDS011;27404;52.398;9.646;2023-07-20T06:54:39;2.70;;;1.70;;
8159;SDS011;27404;52.398;9.646;2023-07-20T06:57:05;4.63;;;1.37;;
8159;SDS011;27404;52.398;9.646;2023-07-20T06:59:30;2.33;;;1.33;;
8159;SDS011;27404;52.398;9.646;2023-07-20T07:01:56;2.83;;;1.90;;
8159;SDS011;27404;52.398;9.646;2023-07-20T07:04:21;3.23;;;1.93;;
8159;SDS011;27404;52.398;9.646;2023-07-20T07:06:47;2.70;;;2.13;;
8159;SDS011;27404;52.398;9.646;2023-07-20T07:09:13;2.67;;;1.63;;
8159;SDS011;27404;52.398;9.646;2023-07-20T07:11:39;2.53;;;1.93;;
8159;SDS011;27404;52.398;9.646;2023-07-20T07:14:04;3.40;;;1.90;;
8159;SDS011;27404;52.398;9.646;2023-07-20T07:16:30;2.33;;;2.13;;
8159;SDS011;27404;52.398;9.646;2023-07-20T07:18:55;2.83;;;2.28;;
8159;SDS011;27404;52.398;9.646;2023-07-20T07:21:21;2.30;;;2.10;;
8159;SDS011;27404;52.398;9.646;2023-07-20T07:23:46;2.80;;;2.33;;
8159;SDS011;27404;52.398;9.646;2023-07-20T07:26:12;2.10;;;1.80;;
8159;SDS011;27404;52.398;9.646;2023-07-20T07:28:38;3.55;;;1.88;;
8159;SDS011;27404;52.398;9.646;2023-07-20T07:31:06;1.98;;;1.38;;
8159;SDS011;27404;52.398;9.646;2023-07-20T07:33:33;1.98;;;1.55;;
8159;SDS011;27404;52.398;9.646;2023-07-20T07:35:58;3.25;;;1.80;;
8159;SDS011;27404;52.398;9.646;2023-07-20T07:38:24;5.85;;;2.17;;
8159;SDS011;27404;52.398;9.646;2023-07-20T07:40:49;3.08;;;1.88;;
8159;SDS011;27404;52.398;9.646;2023-07-20T07:43:15;2.40;;;1.30;;
8159;SDS011;27404;52.398;9.646;2023-07-20T07:45:40;2.20;;;1.38;;
8159;SDS011;27404;52.398;9.646;2023-07-20T07:48:06;2.95;;;1.50;;
8159;SDS011;27404;52.398;9.646;2023-07-20T07:50:32;2.10;;;1.40;;
8159;SDS011;27404;52.398;9.646;2023-07-20T07:52:58;1.77;;;1.30;;
8159;SDS011;27404;52.398;9.646;2023-07-20T07:55:24;1.73;;;1.40;;
8159;SDS011;27404;52.398;9.646;2023-07-20T07:57:51;3.87;;;1.47;;
8159;SDS011;27404;52.398;9.646;2023-07-20T08:00:17;1.57;;;1.40;;
8159;SDS011;27404;52.398;9.646;2023-07-20T08:02:44;2.73;;;1.63;;
8159;SDS011;27404;52.398;9.646;2023-07-20T08:05:12;3.30;;;1.60;;
8159;SDS011;27404;52.398;9.646;2023-07-20T08:07:37;2.23;;;1.30;;
8159;SDS011;27404;52.398;9.646;2023-07-20T08:10:03;2.90;;;1.40;;
8159;SDS011;27404;52.398;9.646;2023-07-20T08:12:30;3.43;;;1.20;;
8159;SDS011;27404;52.398;9.646;2023-07-20T08:14:55;1.00;;;0.90;;
8159;SDS011;27404;52.398;9.646;2023-07-20T08:17:21;2.67;;;1.30;;
8159;SDS011;27404;52.398;9.646;2023-07-20T08:19:46;2.40;;;1.20;;
8159;SDS011;27404;52.398;9.646;2023-07-20T08:22:12;1.50;;;1.20;;
8159;SDS011;27404;52.398;9.646;2023-07-20T08:24:41;1.97;;;0.77;;
8159;SDS011;27404;52.398;9.646;2023-07-20T08:27:07;4.67;;;1.10;;
8159;SDS011;27404;52.398;9.646;2023-07-20T08:29:36;1.43;;;0.90;;
8159;SDS011;27404;52.398;9.646;2023-07-20T08:32:02;2.30;;;1.07;;
8159;SDS011;27404;52.398;9.646;2023-07-20T08:34:29;2.30;;;0.80;;
8159;SDS011;27404;52.398;9.646;2023-07-20T08:36:54;2.10;;;0.83;;
8159;SDS011;27404;52.398;9.646;2023-07-20T08:39:21;1.83;;;0.87;;
8159;SDS011;27404;52.398;9.646;2023-07-20T08:41:48;1.57;;;1.10;;
8159;SDS011;27404;52.398;9.646;2023-07-20T08:44:14;2.77;;;1.10;;
8159;SDS011;27404;52.398;9.646;2023-07-20T08:46:40;2.67;;;0.70;;
8159;SDS011;27404;52.398;9.646;2023-07-20T08:49:06;1.00;;;0.70;;
8159;SDS011;27404;52.398;9.646;2023-07-20T08:51:32;2.10;;;0.80;;
8159;SDS011;27404;52.398;9.646;2023-07-20T08:53:59;1.20;;;0.70;;
8159;SDS011;27404;52.398;9.646;2023-07-20T08:56:25;1.80;;;0.60;;
8159;SDS011;27404;52.398;9.646;2023-07-20T08:58:52;1.87;;;0.80;;
8159;SDS011;27404;52.398;9.646;2023-07-20T09:01:19;1.90;;;0.73;;
8159;SDS011;27404;52.398;9.646;2023-07-20T09:03:45;1.30;;;0.80;;
8159;SDS011;27404;52.398;9.646;2023-07-20T09:06:11;7.20;;;1.00;;
8159;SDS011;27404;52.398;9.646;2023-07-20T09:08:38;1.10;;;0.60;;
8159;SDS011;27404;52.398;9.646;2023-07-20T09:11:04;1.07;;;0.63;;
8159;SDS011;27404;52.398;9.646;2023-07-20T09:13:31;1.90;;;0.90;;
8159;SDS011;27404;52.398;9.646;2023-07-20T09:15:57;2.10;;;0.80;;
8159;SDS011;27404;52.398;9.646;2023-07-20T09:18:24;1.33;;;0.70;;
8159;SDS011;27404;52.398;9.646;2023-07-20T09:20:53;2.53;;;0.80;;
8159;SDS011;27404;52.398;9.646;2023-07-20T09:23:34;5.17;;;0.90;;
8159;SDS011;27404;52.398;9.646;2023-07-20T09:26:09;1.63;;;0.63;;
8159;SDS011;27404;52.398;9.646;2023-07-20T09:28:49;1.07;;;0.70;;
8159;SDS011;27404;52.398;9.646;2023-07-20T09:31:18;2.30;;;0.70;;
8159;SDS011;27404;52.398;9.646;2023-07-20T09:33:45;4.70;;;0.60;;
8159;SDS011;27404;52.398;9.646;2023-07-20T09:36:11;0.82;;;0.60;;
8159;SDS011;27404;52.398;9.646;2023-07-20T09:38:38;1.33;;;0.67;;
8159;SDS011;27404;52.398;9.646;2023-07-20T09:41:05;2.00;;;0.50;;
8159;SDS011;27404;52.398;9.646;2023-07-20T09:43:34;1.55;;;0.60;;
8159;SDS011;27404;52.398;9.646;2023-07-20T09:46:00;3.28;;;0.52;;
8159;SDS011;27404;52.398;9.646;2023-07-20T09:48:29;1.00;;;0.50;;
8159;SDS011;27404;52.398;9.646;2023-07-20T09:50:55;0.82;;;0.60;;
8159;SDS011;27404;52.398;9.646;2023-07-20T09:53:21;1.45;;;0.60;;
8159;SDS011;27404;52.398;9.646;2023-07-20T09:55:50;1.55;;;0.63;;
8159;SDS011;27404;52.398;9.646;2023-07-20T09:58:15;0.60;;;0.50;;
8159;SDS011;27404;52.398;9.646;2023-07-20T10:00:42;0.60;;;0.50;;
8159;SDS011;27404;52.398;9.646;2023-07-20T10:03:10;1.65;;;0.60;;
8159;SDS011;27404;52.398;9.646;2023-07-20T10:05:46;1.00;;;0.70;;
8159;SDS011;27404;52.398;9.646;2023-07-20T10:08:16;1.05;;;0.52;;
8159;SDS011;27404;52.398;9.646;2023-07-20T10:10:45;1.20;;;0.80;;
8159;SDS011;27404;52.398;9.646;2023-07-20T10:13:16;0.90;;;0.60;;
8159;SDS011;27404;52.398;9.646;2023-07-20T10:15:46;0.82;;;0.55;;
8159;SDS011;27404;52.398;9.646;2023-07-20T10:21:20;0.68;;;0.55;;
8159;SDS011;27404;52.398;9.646;2023-07-20T10:23:48;1.25;;;0.60;;
8159;SDS011;27404;52.398;9.646;2023-07-20T10:26:15;1.90;;;0.70;;
8159;SDS011;27404;52.398;9.646;2023-07-20T10:28:41;0.63;;;0.60;;
8159;SDS011;27404;52.398;9.646;2023-07-20T10:31:08;1.60;;;0.63;;
8159;SDS011;27404;52.398;9.646;2023-07-20T10:33:36;0.70;;;0.50;;
8159;SDS011;27404;52.398;9.646;2023-07-20T10:36:04;1.83;;;0.67;;
8159;SDS011;27404;52.398;9.646;2023-07-20T10:38:52;0.93;;;0.50;;
8159;SDS011;27404;52.398;9.646;2023-07-20T10:41:19;3.70;;;0.57;;
8159;SDS011;27404;52.398;9.646;2023-07-20T10:44:07;2.58;;;0.47;;
8159;SDS011;27404;52.398;9.646;2023-07-20T10:49:12;2.38;;;0.50;;
8159;SDS011;27404;52.398;9.646;2023-07-20T10:56:42;1.27;;;0.65;;
8159;SDS011;27404;52.398;9.646;2023-07-20T11:01:49;1.17;;;0.50;;
8159;SDS011;27404;52.398;9.646;2023-07-20T11:04:21;1.75;;;0.80;;
8159;SDS011;27404;52.398;9.646;2023-07-20T11:07:06;4.00;;;0.70;;
8159;SDS011;27404;52.398;9.646;2023-07-20T11:09:35;1.77;;;0.60;;
8159;SDS011;27404;52.398;9.646;2023-07-20T11:12:12;4.20;;;0.77;;
8159;SDS011;27404;52.398;9.646;2023-07-20T11:14:42;2.13;;;0.88;;
8159;SDS011;27404;52.398;9.646;2023-07-20T11:17:12;1.70;;;0.60;;
8159;SDS011;27404;52.398;9.646;2023-07-20T11:19:39;3.00;;;0.65;;
8159;SDS011;27404;52.398;9.646;2023-07-20T11:22:06;2.00;;;1.20;;
8159;SDS011;27404;52.398;9.646;2023-07-20T11:24:41;2.25;;;0.70;;
8159;SDS011;27404;52.398;9.646;2023-07-20T11:27:14;0.90;;;0.50;;
8159;SDS011;27404;52.398;9.646;2023-07-20T11:29:40;1.95;;;0.57;;
8159;SDS011;27404;52.398;9.646;2023-07-20T11:32:06;1.67;;;0.63;;
8159;SDS011;27404;52.398;9.646;2023-07-20T11:34:33;2.10;;;0.67;;
8159;SDS011;27404;52.398;9.646;2023-07-20T11:36:59;1.37;;;0.80;;
8159;SDS011;27404;52.398;9.646;2023-07-20T11:39:25;0.90;;;0.77;;
8159;SDS011;27404;52.398;9.646;2023-07-20T11:41:52;3.77;;;0.80;;
8159;SDS011;27404;52.398;9.646;2023-07-20T11:44:19;2.03;;;0.80;;
8159;SDS011;27404;52.398;9.646;2023-07-20T11:46:53;1.83;;;0.70;;
8159;SDS011;27404;52.398;9.646;2023-07-20T11:49:34;3.73;;;0.77;;
8159;SDS011;27404;52.398;9.646;2023-07-20T11:52:07;11.43;;;1.10;;
8159;SDS011;27404;52.398;9.646;2023-07-20T11:54:39;4.93;;;0.80;;
8159;SDS011;27404;52.398;9.646;2023-07-20T11:57:06;5.13;;;0.80;;
8159;SDS011;27404;52.398;9.646;2023-07-20T11:59:32;4.03;;;0.73;;
8159;SDS011;27404;52.398;9.646;2023-07-20T12:02:00;3.72;;;0.80;;
8159;SDS011;27404;52.398;9.646;2023-07-20T12:04:27;3.20;;;0.63;;
8159;SDS011;27404;52.398;9.646;2023-07-20T12:06:53;2.17;;;0.70;;
8159;SDS011;27404;52.398;9.646;2023-07-20T12:09:20;2.85;;;0.80;;
8159;SDS011;27404;52.398;9.646;2023-07-20T12:11:48;0.90;;;0.40;;
8159;SDS011;27404;52.398;9.646;2023-07-20T12:14:14;1.55;;;0.80;;
8159;SDS011;27404;52.398;9.646;2023-07-20T12:16:40;0.82;;;0.50;;
8159;SDS011;27404;52.398;9.646;2023-07-20T12:19:06;1.75;;;0.50;;
8159;SDS011;27404;52.398;9.646;2023-07-20T12:21:38;5.35;;;0.90;;
8159;SDS011;27404;52.398;9.646;2023-07-20T12:24:06;1.83;;;0.80;;
8159;SDS011;27404;52.398;9.646;2023-07-20T12:26:34;1.27;;;0.80;;
8159;SDS011;27404;52.398;9.646;2023-07-20T12:29:00;1.40;;;0.70;;
8159;SDS011;27404;52.398;9.646;2023-07-20T12:31:26;5.20;;;0.73;;
8159;SDS011;27404;52.398;9.646;2023-07-20T12:33:52;2.75;;;1.05;;
8159;SDS011;27404;52.398;9.646;2023-07-20T12:36:22;2.75;;;0.73;;
8159;SDS011;27404;52.398;9.646;2023-07-20T12:38:48;3.40;;;0.70;;
8159;SDS011;27404;52.398;9.646;2023-07-20T12:41:13;1.25;;;0.60;;
8159;SDS011;27404;52.398;9.646;2023-07-20T12:43:40;4.68;;;0.75;;
8159;SDS011;27404;52.398;9.646;2023-07-20T12:46:09;0.98;;;0.60;;
8159;SDS011;27404;52.398;9.646;2023-07-20T12:48:37;1.27;;;0.65;;
8159;SDS011;27404;52.398;9.646;2023-07-20T12:51:03;5.80;;;0.80;;
8159;SDS011;27404;52.398;9.646;2023-07-20T12:53:30;1.65;;;0.55;;
8159;SDS011;27404;52.398;9.646;2023-07-20T12:55:56;3.55;;;0.80;;
8159;SDS011;27404;52.398;9.646;2023-07-20T12:58:22;1.50;;;0.70;;
8159;SDS011;27404;52.398;9.646;2023-07-20T13:00:48;2.78;;;0.60;;
8159;SDS011;27404;52.398;9.646;2023-07-20T13:03:14;1.88;;;0.63;;
8159;SDS011;27404;52.398;9.646;2023-07-20T13:05:41;4.32;;;0.80;;
8159;SDS011;27404;52.398;9.646;2023-07-20T13:08:07;0.73;;;0.60;;
8159;SDS011;27404;52.398;9.646;2023-07-20T13:10:32;1.80;;;0.70;;
8159;SDS011;27404;52.398;9.646;2023-07-20T13:12:58;3.35;;;0.60;;
8159;SDS011;27404;52.398;9.646;2023-07-20T13:15:29;1.83;;;0.60;;
8159;SDS011;27404;52.398;9.646;2023-07-20T13:17:56;1.23;;;0.80;;
8159;SDS011;27404;52.398;9.646;2023-07-20T13:20:22;2.75;;;0.68;;
8159;SDS011;27404;52.398;9.646;2023-07-20T13:22:48;1.63;;;0.60;;
8159;SDS011;27404;52.398;9.646;2023-07-20T13:25:14;1.38;;;0.77;;
8159;SDS011;27404;52.398;9.646;2023-07-20T13:27:39;1.33;;;0.80;;
8159;SDS011;27404;52.398;9.646;2023-07-20T13:30:05;2.75;;;1.00;;
8159;SDS011;27404;52.398;9.646;2023-07-20T13:32:33;2.97;;;0.90;;
8159;SDS011;27404;52.398;9.646;2023-07-20T13:34:59;3.33;;;0.90;;
8159;SDS011;27404;52.398;9.646;2023-07-20T13:37:24;1.40;;;0.82;;
8159;SDS011;27404;52.398;9.646;2023-07-20T13:39:51;1.90;;;1.00;;
8159;SDS011;27404;52.398;9.646;2023-07-20T13:42:16;2.80;;;1.10;;
8159;SDS011;27404;52.398;9.646;2023-07-20T13:44:42;5.70;;;1.13;;
8159;SDS011;27404;52.398;9.646;2023-07-20T13:47:07;1.70;;;0.93;;
8159;SDS011;27404;52.398;9.646;2023-07-20T13:49:33;1.33;;;0.70;;
8159;SDS011;27404;52.398;9.646;2023-07-20T13:51:59;6.73;;;1.00;;
8159;SDS011;27404;52.398;9.646;2023-07-20T13:54:24;2.17;;;1.00;;
8159;SDS011;27404;52.398;9.646;2023-07-20T13:56:50;7.63;;;1.07;;
8159;SDS011;27404;52.398;9.646;2023-07-20T13:59:17;3.57;;;1.00;;
8159;SDS011;27404;52.398;9.646;2023-07-20T14:01:43;2.88;;;0.90;;
8159;SDS011;27404;52.398;9.646;2023-07-20T14:04:08;2.97;;;1.02;;
8159;SDS011;27404;52.398;9.646;2023-07-20T14:06:34;2.00;;;0.82;;
8159;SDS011;27404;52.398;9.646;2023-07-20T14:09:00;1.00;;;0.60;;
8159;SDS011;27404;52.398;9.646;2023-07-20T14:11:27;1.75;;;0.90;;
8159;SDS011;27404;52.398;9.646;2023-07-20T14:13:53;1.42;;;0.75;;
8159;SDS011;27404;52.398;9.646;2023-07-20T14:16:19;2.05;;;0.80;;
8159;SDS011;27404;52.398;9.646;2023-07-20T14:18:45;1.40;;;0.95;;
8159;SDS011;27404;52.398;9.646;2023-07-20T14:21:14;1.33;;;0.70;;
8159;SDS011;27404;52.398;9.646;2023-07-20T14:23:39;1.73;;;1.00;;
8159;SDS011;27404;52.398;9.646;2023-07-20T14:26:05;2.50;;;0.88;;
8159;SDS011;27404;52.398;9.646;2023-07-20T14:28:31;2.28;;;0.70;;
8159;SDS011;27404;52.398;9.646;2023-07-20T14:30:57;3.50;;;0.90;;
8159;SDS011;27404;52.398;9.646;2023-07-20T14:33:22;2.85;;;0.75;;
8159;SDS011;27404;52.398;9.646;2023-07-20T14:35:48;1.50;;;0.75;;
8159;SDS011;27404;52.398;9.646;2023-07-20T14:38:13;1.15;;;0.70;;
8159;SDS011;27404;52.398;9.646;2023-07-20T14:40:39;1.75;;;0.80;;
8159;SDS011;27404;52.398;9.646;2023-07-20T14:43:04;1.45;;;0.80;;
8159;SDS011;27404;52.398;9.646;2023-07-20T14:45:30;1.77;;;0.70;;
8159;SDS011;27404;52.398;9.646;2023-07-20T14:47:56;3.50;;;0.93;;
8159;SDS011;27404;52.398;9.646;2023-07-20T14:50:21;0.90;;;0.68;;
8159;SDS011;27404;52.398;9.646;2023-07-20T14:52:48;1.10;;;0.60;;
8159;SDS011;27404;52.398;9.646;2023-07-20T14:55:13;2.90;;;0.75;;
8159;SDS011;27404;52.398;9.646;2023-07-20T14:57:39;1.88;;;0.80;;
8159;SDS011;27404;52.398;9.646;2023-07-20T15:00:04;1.30;;;0.85;;
8159;SDS011;27404;52.398;9.646;2023-07-20T15:02:33;1.30;;;0.73;;
8159;SDS011;27404;52.398;9.646;2023-07-20T15:04:58;1.50;;;0.63;;
8159;SDS011;27404;52.398;9.646;2023-07-20T15:07:25;7.00;;;0.82;;
8159;SDS011;27404;52.398;9.646;2023-07-20T15:09:50;1.30;;;0.70;;
8159;SDS011;27404;52.398;9.646;2023-07-20T15:12:16;2.08;;;0.80;;
8159;SDS011;27404;52.398;9.646;2023-07-20T15:14:42;1.48;;;0.77;;
8159;SDS011;27404;52.398;9.646;2023-07-20T15:17:08;0.82;;;0.70;;
8159;SDS011;27404;52.398;9.646;2023-07-20T15:19:37;1.40;;;0.70;;